Time;durP1;ratioP1;P1;durP2;ratioP2;P2;SDS_P1;SDS_P2;PMS_P1;PMS_P2;Temp;Humidity;BMP_temperature;BMP_pressure;BME280_temperature;BME280_humidity;BME280_pressure;Samples;Min_cycle;Max_cycle;Signal;HPM_P1;HPM_P2
2024/04/05 00:00:53;;;;;;;24.38;5.05;;;14.50;99.90;;;;;;5078674;28;20055;-76
2024/04/05 00:03:19;;;;;;;32.85;4.85;;;14.40;99.90;;;;;;5078255;28;20028;-75
2024/04/05 00:05:45;;;;;;;27.52;5.72;;;14.40;99.90;;;;;;5060911;28;20052;-74
2024/04/05 00:08:10;;;;;;;33.45;5.47;;;14.30;99.90;;;;;;5061520;28;20028;-75
2024/04/05 00:10:36;;;;;;;34.97;5.00;;;14.30;99.90;;;;;;5030889;28;20036;-74
2024/04/05 00:13:02;;;;;;;31.17;5.38;;;14.20;99.90;;;;;;5060921;28;20028;-76
2024/04/05 00:15:27;;;;;;;25.27;4.20;;;14.20;99.90;;;;;;5061229;28;20032;-76
2024/04/05 00:17:53;;;;;;;31.00;5.07;;;14.10;99.90;;;;;;5078274;28;20040;-74
2024/04/05 00:20:19;;;;;;;31.15;4.80;;;14.20;99.90;;;;;;5062595;28;20047;-75
2024/04/05 00:22:44;;;;;;;24.88;4.80;;;14.20;99.90;;;;;;5062815;28;20111;-75
2024/04/05 00:25:10;;;;;;;21.10;4.85;;;14.30;99.90;;;;;;5096694;28;20048;-76
2024/04/05 00:27:36;;;;;;;29.23;4.25;;;14.30;99.90;;;;;;5045417;28;20024;-78
2024/04/05 00:30:02;;;;;;;29.50;4.72;;;14.30;99.90;;;;;;5079827;28;20028;-76
2024/04/05 00:32:29;;;;;;;17.25;3.85;;;14.30;99.90;;;;;;5079775;28;20016;-78
2024/04/05 00:34:54;;;;;;;20.52;4.05;;;14.30;99.90;;;;;;5062126;28;20035;-76
2024/04/05 00:37:20;;;;;;;26.20;4.53;;;14.20;99.90;;;;;;5041894;28;20052;-76
2024/04/05 00:39:46;;;;;;;26.15;4.60;;;14.10;99.90;;;;;;5036014;28;20044;-75
2024/04/05 00:42:12;;;;;;;22.08;4.20;;;14.10;99.90;;;;;;5038085;28;20064;-77
2024/04/05 00:44:38;;;;;;;16.83;3.58;;;14.20;99.90;;;;;;5055730;28;20027;-78
2024/04/05 00:47:04;;;;;;;20.92;4.55;;;14.10;99.90;;;;;;5053112;28;20032;-77
2024/04/05 00:49:29;;;;;;;24.75;4.03;;;14.20;99.90;;;;;;5041107;28;20505;-75
2024/04/05 00:52:00;;;;;;;20.55;4.07;;;14.20;99.90;;;;;;5077457;28;20036;-76
2024/04/05 00:54:26;;;;;;;23.38;4.03;;;14.10;99.90;;;;;;5071680;28;20020;-75
2024/04/05 00:56:53;;;;;;;24.05;3.30;;;14.20;99.90;;;;;;5059352;28;20077;-76
2024/04/05 00:59:19;;;;;;;21.67;3.97;;;14.20;99.90;;;;;;5077355;28;20066;-77
2024/04/05 01:01:45;;;;;;;26.27;4.72;;;14.20;99.90;;;;;;5060302;28;20047;-77
2024/04/05 01:04:11;;;;;;;20.60;3.97;;;14.20;99.90;;;;;;5065426;28;20020;-78
2024/04/05 01:06:37;;;;;;;25.02;4.03;;;14.20;99.90;;;;;;5049249;28;20024;-75
2024/04/05 01:09:06;;;;;;;27.10;5.07;;;14.20;99.90;;;;;;5048283;28;20063;-77
2024/04/05 01:11:32;;;;;;;21.42;3.90;;;14.30;99.90;;;;;;5080301;28;20036;-79
2024/04/05 01:13:58;;;;;;;15.27;3.30;;;14.30;99.90;;;;;;5078192;28;20054;-78
2024/04/05 01:16:24;;;;;;;19.10;3.47;;;14.40;99.90;;;;;;5057310;28;20481;-78
2024/04/05 01:18:52;;;;;;;17.83;3.35;;;14.40;99.90;;;;;;5060392;28;20103;-77
2024/04/05 01:21:20;;;;;;;29.23;3.53;;;14.40;99.90;;;;;;5076730;28;20028;-75
2024/04/05 01:23:46;;;;;;;25.13;3.88;;;14.30;99.90;;;;;;5094187;28;20354;-76
2024/04/05 01:26:12;;;;;;;23.13;3.70;;;14.30;99.90;;;;;;5041615;28;20078;-76
2024/04/05 01:28:37;;;;;;;22.30;3.78;;;14.30;99.90;;;;;;5094331;28;20069;-75
2024/04/05 01:31:03;;;;;;;20.48;3.40;;;14.40;99.90;;;;;;5094761;28;20496;-77
2024/04/05 01:33:29;;;;;;;20.65;3.35;;;14.50;99.90;;;;;;5076500;28;20111;-77
2024/04/05 01:35:54;;;;;;;18.85;3.40;;;14.50;99.90;;;;;;5049567;28;20027;-75
2024/04/05 01:38:20;;;;;;;24.52;3.92;;;14.50;99.90;;;;;;5044490;28;20028;-78
2024/04/05 01:40:46;;;;;;;24.70;4.15;;;14.50;99.90;;;;;;5046192;28;20044;-77
2024/04/05 01:43:11;;;;;;;14.73;2.75;;;14.50;99.90;;;;;;5047611;28;20454;-77
2024/04/05 01:45:38;;;;;;;27.38;4.20;;;14.40;99.90;;;;;;5080355;28;20039;-76
2024/04/05 01:48:04;;;;;;;24.55;5.38;;;14.40;99.90;;;;;;5075286;28;20024;-78
2024/04/05 01:50:30;;;;;;;20.13;3.80;;;14.30;99.90;;;;;;5072100;28;20143;-74
2024/04/05 01:52:56;;;;;;;25.60;4.45;;;14.40;99.90;;;;;;5094767;28;20504;-75
2024/04/05 01:55:21;;;;;;;17.48;3.25;;;14.50;99.90;;;;;;5075712;28;20032;-74
2024/04/05 01:57:47;;;;;;;23.33;4.22;;;14.50;99.90;;;;;;5079423;28;20089;-74
2024/04/05 02:00:13;;;;;;;25.92;3.80;;;14.60;99.90;;;;;;5080172;28;20472;-75
2024/04/05 02:02:39;;;;;;;24.80;3.42;;;14.50;99.90;;;;;;5093342;28;20028;-76
2024/04/05 02:05:05;;;;;;;18.50;3.00;;;14.30;99.90;;;;;;5063043;28;20052;-78
2024/04/05 02:07:30;;;;;;;24.15;4.40;;;14.30;99.90;;;;;;5076249;28;20553;-77
2024/04/05 02:09:56;;;;;;;22.08;3.67;;;14.10;99.90;;;;;;5101475;28;20031;-77
2024/04/05 02:12:23;;;;;;;30.30;5.22;;;13.90;99.90;;;;;;5098658;28;20023;-76
2024/04/05 02:14:49;;;;;;;25.13;3.65;;;13.90;99.90;;;;;;5064678;28;20581;-75
2024/04/05 02:17:15;;;;;;;18.40;3.35;;;13.80;99.90;;;;;;5086459;28;20025;-75
2024/04/05 02:19:41;;;;;;;28.20;4.13;;;13.70;99.90;;;;;;5111396;28;20083;-77
2024/04/05 02:22:06;;;;;;;16.45;3.80;;;13.70;99.90;;;;;;5071998;28;20033;-76
2024/04/05 02:24:33;;;;;;;22.75;4.05;;;13.70;99.90;;;;;;5075816;28;20055;-75
2024/04/05 02:26:59;;;;;;;36.60;4.57;;;13.70;99.90;;;;;;5060651;28;20425;-76
2024/04/05 02:29:25;;;;;;;20.15;3.13;;;13.80;99.90;;;;;;5060412;28;20062;-75
2024/04/05 02:31:51;;;;;;;25.00;4.80;;;13.70;99.90;;;;;;5055015;28;20035;-79
2024/04/05 02:34:17;;;;;;;21.00;3.47;;;13.70;99.90;;;;;;5057323;28;20036;-77
2024/04/05 02:36:42;;;;;;;20.80;4.07;;;13.70;99.90;;;;;;5026950;28;20153;-77
2024/04/05 02:39:08;;;;;;;26.48;3.92;;;13.70;99.90;;;;;;5057355;28;20036;-75
2024/04/05 02:41:34;;;;;;;20.65;3.92;;;13.60;99.90;;;;;;5078247;28;20036;-78
2024/04/05 02:44:00;;;;;;;17.83;3.72;;;13.60;99.90;;;;;;5064211;28;20074;-78
2024/04/05 02:46:26;;;;;;;21.25;3.55;;;13.70;99.90;;;;;;5053975;28;20035;-78
2024/04/05 02:48:54;;;;;;;27.60;4.75;;;13.70;99.90;;;;;;5073368;28;20103;-76
2024/04/05 02:51:20;;;;;;;16.85;3.67;;;13.80;99.90;;;;;;5063749;28;20058;-76
2024/04/05 02:53:46;;;;;;;25.95;3.90;;;13.80;99.90;;;;;;5056719;28;20028;-77
2024/04/05 02:56:13;;;;;;;30.20;4.25;;;13.90;99.90;;;;;;5059824;28;20039;-79
2024/04/05 02:58:38;;;;;;;24.50;3.83;;;14.00;99.90;;;;;;5056994;28;20024;-77
2024/04/05 03:01:04;;;;;;;21.05;4.13;;;14.10;99.90;;;;;;5043232;28;20040;-76
2024/04/05 03:03:30;;;;;;;24.48;4.18;;;14.20;99.90;;;;;;5059538;28;20094;-76
2024/04/05 03:05:55;;;;;;;21.75;3.60;;;14.40;99.90;;;;;;5075206;28;20395;-75
2024/04/05 03:08:22;;;;;;;24.55;3.65;;;14.40;99.90;;;;;;5093915;28;20020;-75
2024/04/05 03:10:48;;;;;;;26.30;4.32;;;14.30;99.90;;;;;;5052155;28;20129;-77
2024/04/05 03:13:13;;;;;;;23.60;3.60;;;14.20;99.90;;;;;;5079878;28;20028;-78
2024/04/05 03:15:39;;;;;;;24.33;4.80;;;14.00;99.90;;;;;;5095391;28;20028;-77
2024/04/05 03:18:05;;;;;;;14.95;3.40;;;14.00;99.90;;;;;;5059799;28;20031;-78
2024/04/05 03:20:31;;;;;;;22.63;3.47;;;14.10;99.90;;;;;;5092347;28;20032;-77
2024/04/05 03:22:56;;;;;;;22.38;4.00;;;13.90;99.90;;;;;;5059076;28;20066;-75
2024/04/05 03:25:22;;;;;;;20.38;3.58;;;14.10;99.90;;;;;;5074170;28;20048;-76
2024/04/05 03:27:48;;;;;;;21.50;3.28;;;13.90;99.90;;;;;;5072275;28;20017;-75
2024/04/05 03:30:14;;;;;;;17.80;3.53;;;13.90;99.90;;;;;;5075024;28;20042;-75
2024/04/05 03:32:40;;;;;;;29.92;4.70;;;13.90;99.90;;;;;;5093113;28;20470;-74
2024/04/05 03:35:06;;;;;;;19.13;3.50;;;14.00;99.90;;;;;;5075213;28;20028;-74
2024/04/05 03:37:33;;;;;;;16.90;3.28;;;14.00;99.90;;;;;;5075021;28;20032;-76
2024/04/05 03:39:58;;;;;;;27.73;4.32;;;14.00;99.90;;;;;;5074647;28;20482;-74
2024/04/05 03:42:24;;;;;;;22.15;3.22;;;14.00;99.90;;;;;;5075526;28;20173;-77
2024/04/05 03:44:50;;;;;;;21.95;3.40;;;14.10;99.90;;;;;;5092867;28;20039;-75
2024/04/05 03:47:15;;;;;;;18.23;3.60;;;14.10;99.90;;;;;;5039235;28;20025;-74
2024/04/05 03:49:41;;;;;;;19.92;3.80;;;14.10;99.90;;;;;;5078865;28;20028;-75
2024/04/05 03:52:08;;;;;;;14.50;3.10;;;14.10;99.90;;;;;;5075419;28;20059;-74
2024/04/05 03:54:33;;;;;;;21.80;3.38;;;14.20;99.90;;;;;;5073398;28;20024;-74
2024/04/05 03:56:59;;;;;;;14.75;3.03;;;14.30;99.90;;;;;;5089213;28;20112;-74
2024/04/05 03:59:28;;;;;;;17.30;3.25;;;14.20;99.90;;;;;;5099835;28;20033;-77
2024/04/05 04:01:54;;;;;;;22.27;3.13;;;14.20;99.90;;;;;;5082156;28;20159;-75
2024/04/05 04:04:21;;;;;;;17.42;3.28;;;14.30;99.90;;;;;;5078469;28;20028;-75
2024/04/05 04:06:47;;;;;;;22.85;4.20;;;14.30;99.90;;;;;;5077413;28;20039;-75
2024/04/05 04:09:14;;;;;;;13.50;3.40;;;14.20;99.90;;;;;;5075835;28;20024;-74
2024/04/05 04:11:42;;;;;;;19.23;3.63;;;14.30;99.90;;;;;;5074914;28;20173;-76
2024/04/05 04:14:08;;;;;;;19.15;3.83;;;14.30;99.90;;;;;;5052433;28;20024;-74
2024/04/05 04:16:34;;;;;;;20.30;3.58;;;14.30;99.90;;;;;;5031497;28;20115;-75
2024/04/05 04:19:00;;;;;;;25.30;4.25;;;14.20;99.90;;;;;;5038896;28;20098;-76
2024/04/05 04:21:26;;;;;;;18.80;3.70;;;14.40;99.90;;;;;;5078842;28;20041;-75
2024/04/05 04:23:52;;;;;;;21.15;3.58;;;14.30;99.90;;;;;;5057225;28;20052;-74
2024/04/05 04:26:20;;;;;;;18.08;3.22;;;14.40;99.90;;;;;;5057258;28;20058;-75
2024/04/05 04:28:47;;;;;;;19.08;3.08;;;14.20;99.90;;;;;;5053992;28;20448;-76
2024/04/05 04:31:23;;;;;;;19.77;3.97;;;14.10;99.90;;;;;;5077681;28;20028;-74
2024/04/05 04:33:50;;;;;;;16.88;3.40;;;14.20;99.90;;;;;;5094952;28;20042;-74
2024/04/05 04:36:18;;;;;;;18.40;2.72;;;14.20;99.90;;;;;;5060894;28;20025;-74
2024/04/05 04:38:44;;;;;;;19.02;3.22;;;14.30;99.90;;;;;;5078129;28;20039;-73
2024/04/05 04:41:12;;;;;;;17.45;3.03;;;14.30;99.90;;;;;;5074109;28;20044;-75
2024/04/05 04:43:39;;;;;;;18.80;2.60;;;14.20;99.90;;;;;;5048283;28;20488;-78
2024/04/05 04:46:05;;;;;;;18.88;3.45;;;14.30;99.90;;;;;;5082368;28;20032;-76
2024/04/05 04:48:30;;;;;;;17.48;3.55;;;14.20;99.90;;;;;;5061525;28;20095;-75
2024/04/05 04:50:56;;;;;;;13.85;3.00;;;14.30;99.90;;;;;;5045187;28;20052;-75
2024/04/05 04:53:22;;;;;;;14.80;3.22;;;14.20;99.90;;;;;;5062268;28;20032;-73
2024/04/05 04:55:48;;;;;;;15.25;4.05;;;14.30;99.90;;;;;;5060206;28;20036;-76
2024/04/05 04:58:17;;;;;;;17.73;3.65;;;14.30;99.90;;;;;;5060759;28;20028;-74
2024/04/05 05:00:46;;;;;;;16.05;3.80;;;14.40;99.90;;;;;;5094389;28;20103;-74
2024/04/05 05:03:12;;;;;;;17.05;3.35;;;14.40;99.90;;;;;;5094625;28;20026;-76
2024/04/05 05:05:38;;;;;;;29.42;4.45;;;14.30;99.90;;;;;;5059417;28;20111;-77
2024/04/05 05:08:04;;;;;;;19.83;3.95;;;14.40;99.90;;;;;;5049288;28;20501;-76
2024/04/05 05:10:30;;;;;;;17.98;3.38;;;14.50;99.90;;;;;;5042505;28;20032;-77
2024/04/05 05:12:56;;;;;;;21.50;4.68;;;14.40;99.90;;;;;;5037225;28;20021;-75
2024/04/05 05:15:22;;;;;;;16.38;3.15;;;14.30;99.90;;;;;;5042545;28;20039;-77
2024/04/05 05:17:48;;;;;;;13.70;2.63;;;14.40;99.90;;;;;;5044728;28;20047;-77
2024/04/05 05:20:16;;;;;;;16.50;2.42;;;14.60;99.90;;;;;;5045556;28;20079;-75
2024/04/05 05:22:43;;;;;;;16.55;2.83;;;14.60;99.90;;;;;;5061202;28;20029;-74
2024/04/05 05:25:08;;;;;;;23.00;3.70;;;14.60;99.90;;;;;;5044298;28;20527;-77
2024/04/05 05:27:34;;;;;;;10.65;2.30;;;14.70;99.90;;;;;;5077480;28;20024;-78
2024/04/05 05:30:00;;;;;;;11.80;2.00;;;14.60;99.90;;;;;;5079082;28;20051;-75
2024/04/05 05:32:26;;;;;;;11.80;2.35;;;14.60;99.90;;;;;;5088908;28;20461;-77
2024/04/05 05:34:51;;;;;;;14.02;2.70;;;14.70;99.90;;;;;;5070024;28;20102;-77
2024/04/05 05:37:17;;;;;;;12.75;3.08;;;14.70;99.90;;;;;;5073895;28;20020;-77
2024/04/05 05:39:43;;;;;;;14.00;2.40;;;14.70;99.90;;;;;;5046013;28;20046;-77
2024/04/05 05:42:09;;;;;;;14.40;2.67;;;14.80;99.90;;;;;;5064670;28;20040;-80
2024/04/05 05:44:35;;;;;;;9.73;2.13;;;14.80;99.90;;;;;;5061241;28;20024;-79
2024/04/05 05:47:00;;;;;;;10.65;2.53;;;14.80;99.90;;;;;;5077169;28;20078;-81
2024/04/05 05:49:26;;;;;;;12.98;2.45;;;14.90;99.90;;;;;;5077036;28;20054;-79
2024/04/05 05:51:52;;;;;;;12.93;2.53;;;14.90;99.90;;;;;;5072064;28;20036;-78
2024/04/05 05:54:19;;;;;;;19.05;2.65;;;14.90;99.90;;;;;;5067858;28;20036;-79
2024/04/05 05:56:45;;;;;;;17.27;3.40;;;14.90;99.90;;;;;;5083698;28;20020;-78
2024/04/05 05:59:11;;;;;;;12.27;3.42;;;14.90;99.90;;;;;;5067936;28;20054;-77
2024/04/05 06:01:37;;;;;;;17.35;2.53;;;15.00;99.90;;;;;;5078807;28;20036;-78
2024/04/05 06:04:03;;;;;;;17.35;3.30;;;15.00;99.90;;;;;;5077200;28;20028;-77
2024/04/05 06:06:30;;;;;;;11.95;2.40;;;14.90;99.90;;;;;;5054940;28;20481;-80
2024/04/05 06:08:56;;;;;;;10.68;2.30;;;14.90;99.90;;;;;;5069993;28;20032;-80
2024/04/05 06:11:22;;;;;;;15.52;2.42;;;15.00;99.90;;;;;;5053514;28;20062;-78
2024/04/05 06:13:48;;;;;;;6.60;1.85;;;14.80;99.90;;;;;;5076970;28;20451;-77
2024/04/05 06:16:14;;;;;;;12.40;2.50;;;14.70;99.90;;;;;;5093960;28;20107;-77
2024/04/05 06:18:45;;;;;;;9.50;2.25;;;14.70;99.90;;;;;;5094814;28;20460;-79
2024/04/05 06:21:11;;;;;;;11.43;2.47;;;14.60;99.90;;;;;;5073811;28;20024;-79
2024/04/05 06:23:37;;;;;;;14.68;2.63;;;14.70;99.90;;;;;;5073972;28;20032;-79
2024/04/05 06:26:03;;;;;;;9.35;1.90;;;14.80;99.90;;;;;;5020816;28;20047;-76
2024/04/05 06:28:29;;;;;;;11.55;2.25;;;14.80;99.90;;;;;;5070450;28;20091;-81
2024/04/05 06:36:07;;;;;;;10.32;2.08;;;14.90;99.90;;;;;;5288664;23;20081;-76
2024/04/05 06:38:32;;;;;;;11.65;2.10;;;14.90;99.90;;;;;;5013811;28;20405;-77
2024/04/05 06:40:59;;;;;;;10.65;2.05;;;14.90;99.90;;;;;;5010425;28;20049;-76
2024/04/05 06:43:29;;;;;;;9.60;1.88;;;14.90;99.90;;;;;;5017268;28;20371;-76
2024/04/05 06:45:56;;;;;;;10.40;2.35;;;15.00;99.90;;;;;;5029324;28;20034;-76
2024/04/05 06:48:21;;;;;;;9.70;1.83;;;15.00;99.90;;;;;;5013484;28;20030;-79
2024/04/05 06:50:48;;;;;;;7.63;1.65;;;15.00;99.90;;;;;;5015530;28;20090;-77
2024/04/05 06:53:21;;;;;;;10.32;1.92;;;15.00;99.90;;;;;;5029594;28;20144;-77
2024/04/05 06:55:48;;;;;;;9.38;1.73;;;15.00;99.90;;;;;;5032653;28;20037;-79
2024/04/05 06:58:15;;;;;;;13.57;1.90;;;15.00;99.90;;;;;;5010856;28;20840;-78
2024/04/05 07:00:41;;;;;;;9.40;1.23;;;15.10;99.90;;;;;;5014028;28;20573;-76
2024/04/05 07:03:07;;;;;;;8.90;1.73;;;15.20;99.90;;;;;;5035842;28;20504;-76
2024/04/05 07:05:33;;;;;;;8.73;1.60;;;15.30;99.90;;;;;;5031407;28;20100;-78
2024/04/05 07:07:59;;;;;;;8.23;1.73;;;15.40;99.90;;;;;;5014716;28;20104;-76
2024/04/05 07:10:25;;;;;;;7.80;1.73;;;15.40;99.90;;;;;;5033155;28;20025;-78
2024/04/05 07:12:52;;;;;;;9.98;2.10;;;15.50;99.90;;;;;;5015781;28;20113;-76
2024/04/05 07:15:19;;;;;;;8.15;1.90;;;15.50;99.90;;;;;;5025888;28;20025;-76
2024/04/05 07:17:52;;;;;;;8.27;2.08;;;15.60;99.90;;;;;;5032620;28;20036;-76
2024/04/05 07:20:24;;;;;;;13.38;2.30;;;15.70;99.90;;;;;;5036111;28;20097;-76
2024/04/05 07:22:53;;;;;;;3.20;0.95;;;15.80;99.90;;;;;;5000959;28;20079;-76
2024/04/05 07:25:24;;;;;;;7.10;1.40;;;15.80;99.90;;;;;;5015923;28;20124;-77
2024/04/05 07:27:51;;;;;;;8.18;1.50;;;15.80;99.90;;;;;;5042745;28;20041;-77
2024/04/05 07:30:22;;;;;;;11.88;1.83;;;15.90;99.90;;;;;;5000961;28;20052;-76
2024/04/05 07:32:48;;;;;;;6.30;1.40;;;16.00;99.90;;;;;;5006841;28;20412;-75
2024/04/05 07:35:14;;;;;;;7.85;1.48;;;16.10;99.90;;;;;;4996924;28;20062;-75
2024/04/05 07:37:41;;;;;;;9.32;1.35;;;16.10;99.90;;;;;;5033435;28;20478;-76
2024/04/05 07:40:08;;;;;;;6.88;1.08;;;16.30;99.90;;;;;;4994916;28;20088;-77
2024/04/05 07:42:35;;;;;;;10.30;1.75;;;16.30;99.90;;;;;;5015277;28;20041;-75
2024/04/05 07:45:03;;;;;;;4.97;1.30;;;16.40;99.90;;;;;;5028076;28;20072;-76
2024/04/05 07:47:29;;;;;;;8.10;1.50;;;16.40;99.90;;;;;;5038214;28;20024;-76
2024/04/05 07:49:55;;;;;;;8.15;1.60;;;16.40;99.90;;;;;;4997455;28;20060;-76
2024/04/05 07:52:20;;;;;;;6.53;1.20;;;16.50;99.90;;;;;;4997353;28;20064;-76
2024/04/05 07:54:47;;;;;;;7.82;1.20;;;16.60;99.90;;;;;;5013136;28;20029;-76
2024/04/05 07:57:13;;;;;;;9.73;1.50;;;16.60;99.90;;;;;;5030647;28;20032;-77
2024/04/05 07:59:46;;;;;;;8.50;1.60;;;16.40;99.90;;;;;;5014349;28;20077;-76
2024/04/05 08:02:12;;;;;;;7.30;1.70;;;16.10;99.90;;;;;;5018664;28;20503;-77
2024/04/05 08:04:38;;;;;;;5.53;1.25;;;16.00;99.90;;;;;;5022546;28;20033;-77
2024/04/05 08:07:04;;;;;;;6.82;1.35;;;15.90;99.90;;;;;;5035750;28;20112;-78
2024/04/05 08:09:29;;;;;;;3.92;1.38;;;15.90;99.90;;;;;;4997435;28;20033;-78
2024/04/05 08:11:55;;;;;;;7.93;1.67;;;16.00;99.90;;;;;;5001220;28;20060;-76
2024/04/05 08:14:21;;;;;;;4.78;1.10;;;16.00;99.90;;;;;;4997951;28;20029;-77
2024/04/05 08:16:47;;;;;;;6.63;1.63;;;15.90;99.90;;;;;;5001542;28;20036;-78
2024/04/05 08:19:12;;;;;;;5.10;1.08;;;16.00;99.90;;;;;;5016142;28;20033;-78
2024/04/05 08:21:38;;;;;;;7.45;2.00;;;15.90;99.90;;;;;;5017012;28;20034;-77
2024/04/05 08:24:04;;;;;;;6.43;1.27;;;15.90;99.90;;;;;;4998879;28;20061;-78
2024/04/05 08:26:30;;;;;;;10.05;1.80;;;15.50;99.90;;;;;;5013907;28;20084;-77
2024/04/05 08:28:56;;;;;;;4.60;1.27;;;15.40;99.90;;;;;;5000331;28;20025;-76
2024/04/05 08:31:21;;;;;;;7.25;1.95;;;15.30;99.90;;;;;;4989723;28;20513;-78
2024/04/05 08:33:48;;;;;;;7.68;1.70;;;15.10;99.90;;;;;;5001316;28;20056;-75
2024/04/05 08:36:14;;;;;;;5.75;1.20;;;15.30;99.90;;;;;;5013735;28;20091;-77
2024/04/05 08:38:40;;;;;;;4.47;1.52;;;15.40;99.90;;;;;;5034514;28;20034;-77
2024/04/05 08:41:10;;;;;;;6.32;1.42;;;15.40;99.90;;;;;;5036151;28;20064;-76
2024/04/05 08:43:41;;;;;;;7.03;1.80;;;15.50;99.90;;;;;;5032086;28;20029;-77
2024/04/05 08:46:07;;;;;;;9.15;1.45;;;15.60;99.90;;;;;;5040369;28;20517;-77
2024/04/05 08:48:36;;;;;;;9.73;1.70;;;15.70;99.90;;;;;;5034334;28;20033;-78
2024/04/05 08:51:03;;;;;;;7.15;1.67;;;15.80;99.90;;;;;;5018825;28;20041;-76
2024/04/05 08:53:29;;;;;;;7.72;1.73;;;15.80;99.90;;;;;;5025790;28;20072;-78
2024/04/05 08:55:59;;;;;;;6.28;1.52;;;15.60;99.90;;;;;;5031544;28;20030;-78
2024/04/05 08:58:26;;;;;;;4.80;1.23;;;15.50;99.90;;;;;;5013679;28;20473;-76
2024/04/05 09:00:53;;;;;;;8.15;1.80;;;15.30;99.90;;;;;;5033305;28;20160;-77
2024/04/05 09:03:19;;;;;;;8.93;1.95;;;15.40;99.90;;;;;;5034490;28;20105;-75
2024/04/05 09:05:44;;;;;;;3.20;1.20;;;15.50;99.90;;;;;;5000416;28;20095;-76
2024/04/05 09:08:11;;;;;;;8.15;1.70;;;15.60;99.90;;;;;;5021332;28;20025;-77
2024/04/05 09:10:36;;;;;;;8.85;1.80;;;15.70;99.90;;;;;;5000488;28;20030;-76
2024/04/05 09:13:04;;;;;;;7.25;1.85;;;15.90;99.90;;;;;;5028332;28;20100;-75
2024/04/05 09:15:31;;;;;;;8.50;1.45;;;16.10;99.90;;;;;;5016887;28;20026;-75
2024/04/05 09:17:56;;;;;;;7.85;2.05;;;16.40;99.90;;;;;;5022844;28;20021;-77
2024/04/05 09:20:25;;;;;;;5.65;1.40;;;16.60;99.90;;;;;;5020175;28;20108;-75
2024/04/05 09:23:10;;;;;;;4.68;1.40;;;16.90;99.90;;;;;;5016951;28;20041;-75
2024/04/05 09:25:38;;;;;;;7.00;1.65;;;17.00;99.90;;;;;;5007307;28;20049;-78
2024/04/05 09:28:05;;;;;;;5.80;1.23;;;17.10;99.90;;;;;;5035723;28;20029;-75
2024/04/05 09:30:30;;;;;;;8.90;1.67;;;17.10;99.90;;;;;;5031950;28;20060;-76
2024/04/05 09:32:57;;;;;;;6.00;1.08;;;17.10;99.90;;;;;;4997484;28;20017;-77
2024/04/05 09:35:26;;;;;;;4.53;2.15;;;17.10;99.90;;;;;;5028622;28;20058;-76
2024/04/05 09:37:54;;;;;;;4.53;1.33;;;17.10;99.90;;;;;;5033072;28;20022;-78
2024/04/05 09:40:23;;;;;;;11.05;1.35;;;17.00;99.90;;;;;;5031833;28;20052;-76
2024/04/05 09:42:51;;;;;;;9.82;1.48;;;16.90;99.90;;;;;;5013720;28;20496;-77
2024/04/05 09:45:18;;;;;;;6.15;0.98;;;16.80;99.90;;;;;;5029714;28;20018;-78
2024/04/05 09:47:46;;;;;;;6.00;1.63;;;16.70;99.90;;;;;;5014615;28;20408;-77
2024/04/05 09:50:11;;;;;;;9.27;2.03;;;16.60;99.90;;;;;;4997227;28;20621;-76
2024/04/05 09:52:40;;;;;;;6.40;2.00;;;16.50;99.90;;;;;;5014192;28;20056;-78
2024/04/05 09:55:10;;;;;;;6.82;1.90;;;16.60;99.90;;;;;;5031575;28;20543;-76
2024/04/05 09:57:36;;;;;;;10.75;2.10;;;16.60;99.90;;;;;;5018416;28;20033;-77
2024/04/05 10:00:24;;;;;;;8.70;1.70;;;16.70;99.90;;;;;;5015571;28;20030;-79
2024/04/05 10:02:55;;;;;;;8.35;1.52;;;16.70;99.90;;;;;;5019707;28;20106;-76
2024/04/05 10:05:29;;;;;;;6.80;1.20;;;16.80;99.90;;;;;;5012320;28;20029;-77
2024/04/05 10:07:55;;;;;;;8.73;1.50;;;16.80;99.90;;;;;;5015140;28;20500;-76
2024/04/05 10:10:33;;;;;;;4.50;1.00;;;16.90;99.90;;;;;;5030590;28;20025;-76
2024/04/05 10:13:16;;;;;;;4.72;1.00;;;16.90;99.90;;;;;;5030787;28;20017;-78
2024/04/05 10:15:54;;;;;;;5.63;1.35;;;17.00;99.90;;;;;;5008250;28;20419;-76
2024/04/05 10:18:30;;;;;;;9.23;1.60;;;17.00;99.90;;;;;;5004676;28;20388;-77
2024/04/05 10:21:09;;;;;;;11.80;1.83;;;17.10;99.90;;;;;;5000360;28;20104;-75
2024/04/05 10:23:39;;;;;;;7.90;1.98;;;17.10;99.90;;;;;;5015980;28;20124;-76
2024/04/05 10:26:15;;;;;;;7.18;1.85;;;17.20;99.90;;;;;;5014047;28;20026;-77
2024/04/05 10:28:42;;;;;;;10.75;2.08;;;17.20;99.90;;;;;;5026070;28;20112;-77
2024/04/05 10:31:10;;;;;;;6.40;1.95;;;17.20;99.90;;;;;;5015144;28;20069;-75
2024/04/05 10:33:38;;;;;;;10.60;3.45;;;17.30;99.90;;;;;;5031487;28;20052;-77
2024/04/05 10:36:04;;;;;;;11.20;2.45;;;17.40;99.90;;;;;;5026389;28;20048;-75
2024/04/05 10:38:30;;;;;;;7.47;1.60;;;17.30;99.90;;;;;;4997942;28;20134;-76
2024/04/05 10:41:03;;;;;;;6.85;1.40;;;17.20;99.90;;;;;;5015414;28;20045;-77
2024/04/05 10:43:29;;;;;;;6.00;1.95;;;17.00;99.90;;;;;;5027648;28;20516;-76
2024/04/05 10:45:59;;;;;;;8.50;1.55;;;16.80;99.90;;;;;;5016579;28;20049;-77
2024/04/05 10:48:25;;;;;;;7.47;1.38;;;16.60;99.90;;;;;;5014132;28;20022;-76
2024/04/05 10:50:52;;;;;;;6.60;1.58;;;16.30;99.90;;;;;;5026614;28;20297;-76
2024/04/05 10:53:19;;;;;;;7.72;1.92;;;16.00;99.90;;;;;;5034507;28;20174;-76
2024/04/05 10:55:45;;;;;;;6.78;2.15;;;15.90;99.90;;;;;;5027558;28;20030;-78
2024/04/05 10:58:12;;;;;;;7.03;1.10;;;15.70;99.90;;;;;;5012228;28;20193;-75
2024/04/05 11:00:38;;;;;;;4.07;1.40;;;15.70;99.90;;;;;;5013451;28;20048;-76
2024/04/05 11:03:08;;;;;;;9.80;1.63;;;15.70;99.90;;;;;;5012371;28;20033;-77
2024/04/05 11:05:35;;;;;;;5.68;1.40;;;15.50;99.90;;;;;;5013908;28;20355;-76
2024/04/05 11:08:03;;;;;;;7.53;1.60;;;15.50;99.90;;;;;;5031627;28;20099;-74
2024/04/05 11:10:34;;;;;;;4.43;1.67;;;15.50;99.90;;;;;;5015405;28;20064;-79
2024/04/05 11:13:01;;;;;;;6.57;1.23;;;15.40;99.90;;;;;;5031429;28;20021;-76
2024/04/05 11:15:26;;;;;;;5.97;1.60;;;15.50;99.90;;;;;;5019975;28;20058;-77
2024/04/05 11:17:59;;;;;;;8.15;1.70;;;15.60;99.90;;;;;;5016086;28;20077;-77
2024/04/05 11:20:31;;;;;;;4.45;1.33;;;15.70;99.90;;;;;;5028722;28;20116;-76
2024/04/05 11:23:02;;;;;;;7.20;1.98;;;15.80;99.90;;;;;;5011290;28;20048;-76
2024/04/05 11:25:28;;;;;;;8.05;1.77;;;15.90;99.90;;;;;;5023559;28;20040;-75
2024/04/05 11:27:54;;;;;;;6.47;1.88;;;15.80;99.90;;;;;;4998292;28;20030;-76
2024/04/05 11:30:20;;;;;;;8.65;2.05;;;15.80;99.90;;;;;;5036013;28;20021;-75
2024/04/05 11:32:45;;;;;;;10.80;2.22;;;15.90;99.90;;;;;;5013960;28;20083;-74
2024/04/05 11:35:14;;;;;;;6.72;1.58;;;15.90;99.90;;;;;;5025461;28;20049;-76
2024/04/05 11:37:43;;;;;;;9.13;1.98;;;15.90;99.90;;;;;;4994353;28;20057;-75
2024/04/05 11:40:10;;;;;;;6.47;1.77;;;16.00;99.90;;;;;;4998809;28;20038;-75
2024/04/05 11:42:40;;;;;;;9.77;1.98;;;16.10;99.90;;;;;;5025224;28;20045;-76
2024/04/05 11:45:06;;;;;;;7.72;1.88;;;16.10;99.90;;;;;;5016718;28;20044;-76
2024/04/05 11:47:36;;;;;;;4.05;1.42;;;16.10;99.90;;;;;;5024400;28;20127;-76
2024/04/05 11:50:03;;;;;;;7.13;1.60;;;16.20;99.90;;;;;;5000383;28;20048;-76
2024/04/05 11:52:29;;;;;;;7.53;1.80;;;16.00;99.90;;;;;;5012846;28;20041;-76
2024/04/05 11:54:54;;;;;;;6.35;1.92;;;15.90;99.90;;;;;;5034444;28;20048;-75
2024/04/05 11:57:20;;;;;;;7.93;1.65;;;15.90;99.90;;;;;;5017823;28;20063;-75
2024/04/05 11:59:46;;;;;;;12.05;2.00;;;15.80;99.90;;;;;;5030889;28;20114;-74
2024/04/05 12:02:12;;;;;;;7.50;1.73;;;15.60;99.90;;;;;;5022069;28;20025;-73
2024/04/05 12:04:38;;;;;;;23.65;3.40;;;15.40;99.90;;;;;;5020490;28;20041;-74
2024/04/05 12:07:05;;;;;;;10.32;2.00;;;15.20;99.90;;;;;;5033504;28;20409;-74
2024/04/05 12:09:31;;;;;;;6.07;2.08;;;15.10;99.90;;;;;;5034794;28;20033;-74
2024/04/05 12:11:58;;;;;;;4.88;1.50;;;15.30;99.90;;;;;;5035624;28;20101;-74
2024/04/05 12:14:24;;;;;;;7.38;1.80;;;15.30;99.90;;;;;;5021833;28;20041;-74
2024/04/05 12:16:49;;;;;;;4.72;1.85;;;16.50;99.90;;;;;;5017211;28;20026;-74
2024/04/05 12:19:15;;;;;;;6.35;1.75;;;16.70;99.90;;;;;;5017106;28;20057;-73
2024/04/05 12:21:41;;;;;;;10.27;2.00;;;16.20;99.90;;;;;;5019349;28;20104;-75
2024/04/05 12:24:07;;;;;;;9.43;2.47;;;15.80;99.90;;;;;;5034494;28;20137;-75
2024/04/05 12:26:32;;;;;;;9.52;2.42;;;15.80;99.90;;;;;;5024550;28;20521;-76
2024/04/05 12:28:58;;;;;;;6.10;2.00;;;15.90;99.90;;;;;;5015554;28;20080;-76
2024/04/05 12:31:26;;;;;;;10.35;2.10;;;15.80;99.90;;;;;;5014206;28;20058;-78
2024/04/05 12:33:52;;;;;;;7.70;1.95;;;15.90;99.90;;;;;;5016511;28;20577;-75
2024/04/05 12:36:17;;;;;;;5.97;1.67;;;15.90;99.90;;;;;;5034043;28;20128;-74
2024/04/05 12:38:46;;;;;;;6.82;1.65;;;15.90;99.90;;;;;;5015775;28;20095;-75
2024/04/05 12:41:17;;;;;;;6.15;1.73;;;16.00;99.90;;;;;;4996282;28;20545;-75
2024/04/05 12:43:43;;;;;;;6.57;2.42;;;16.00;99.90;;;;;;5039807;28;20577;-76